LIEO Airport Information

Runway Information
Runway 05 Length 9006 ft width 148 ft
Elevation 35 ft Threshold 805 ft Heading 53
Runway 23 Length 9006 ft Width 148 ft
Elevation 19 ft Threshold 495 ft Heading 233
Airport Frequencies
Type APP Name OLBIA RADA Frequency 125.95 MHZ
Type ATIS Name ATIS Frequency 113.9 MHZ
Type TWR Name OLBIA TWR Frequency 118.975 MHZ
Airport Navaids
Type VOR-DME Name Olbia Costa Smeralda Frequency 113900 KHZ
Type NDB Name Olbia Costa Smeralda Frequency 357 KHZ
Airport Weather Information & NOTAM
ADDS - METARS form results

(0058 UTC 08 August 2022)
Data provider http://aviationweather.gov/metar/data/
 
METAR text: LIEO 080050Z 25004KT 210V300 CAVOK 25/21 Q1012
Conditions at: LIEO (OLBIA/COSTA SMER, IT) observed 0050 UTC 08 August 2022
Temperature: 25.0°C (77°F)
Dewpoint: 21.0°C (70°F) [RH = 79%]
Pressure (altimeter): 29.88 inches Hg (1012.0 mb)
Winds: from the WSW (250 degrees) at 5 MPH (4 knots; 2.1 m/s)
Visibility: 6 or more miles (10+ km)
Ceiling: ceiling and visibility are OK
Clouds: unknown
Weather: no significant weather observed at this time

METAR text: LIEO 080020Z 27005KT CAVOK 26/20 Q1012
Conditions at: LIEO (OLBIA/COSTA SMER, IT) observed 0020 UTC 08 August 2022
Temperature: 26.0°C (79°F)
Dewpoint: 20.0°C (68°F) [RH = 70%]
Pressure (altimeter): 29.88 inches Hg (1012.0 mb)
Winds: from the W (270 degrees) at 6 MPH (5 knots; 2.6 m/s)
Visibility: 6 or more miles (10+ km)
Ceiling: ceiling and visibility are OK
Clouds: unknown
Weather: no significant weather observed at this time

Forecast for: LIEO (OLBIA/COSTA SMER, IT)
Text: TAF LIEO 072300Z 0800/0824 26006KT CAVOK
Forecast period: 0000 to 0800 UTC 08 August 2022
Forecast type: FROM: standard forecast or significant change
Winds: from the W (260 degrees) at 7 MPH (6 knots; 3.1 m/s)
Visibility: 6 or more miles (10+ km)
Ceiling: unknown
Clouds: missing
Weather: NSW  (no significant weather)
Text: BECMG 0808/0810 04012KT
Forecast period: 0800 to 1800 UTC 08 August 2022
Forecast type: BECOMING: Conditions expected to become as follows by 1000 UTC 08 August 2022
Winds: from the NE (40 degrees) at 14 MPH (12 knots; 6.2 m/s)
Visibility: 6 or more miles (10+ km)
Ceiling: unknown
Clouds: missing
Weather: NSW  (no significant weather)
Text: TEMPO 0812/0818 4000 SHRA
Forecast period: 1200 to 1800 UTC 08 August 2022
Forecast type: TEMPORARY: The following changes expected for less than half the time period
Visibility: 2.49 miles (4.01 km)
Ceiling: unknown
Clouds: missing
Weather: SHRA  (rain showers)
Text: BECMG 0818/0820 25006KT
Forecast period: 1800 UTC 08 August 2022 to 0000 UTC 09 August 2022
Forecast type: BECOMING: Conditions expected to become as follows by 2000 UTC 08 August 2022
Winds: from the WSW (250 degrees) at 7 MPH (6 knots; 3.1 m/s)
Visibility: 6 or more miles (10+ km)
Ceiling: unknown
Clouds: missing
Weather: NSW  (no significant weather)